Time;durP1;ratioP1;P1;durP2;ratioP2;P2;SDS_P1;SDS_P2;PMS_P1;PMS_P2;Temp;Humidity;BMP_temperature;BMP_pressure;BME280_temperature;BME280_humidity;BME280_pressure;Samples;Min_cycle;Max_cycle;Signal;HPM_P1;HPM_P2
2021/12/10 00:01:37;;;;;;;;;0.50;0.50;;;;;;;;5115817;27;46250;-81
2021/12/10 00:04:03;;;;;;;;;0.75;0.00;;;;;;;;5115568;27;45341;-84
2021/12/10 00:06:37;;;;;;;;;2.75;1.00;;;;;;;;5115144;27;45400;-81
2021/12/10 00:09:23;;;;;;;;;1.00;1.00;;;;;;;;5115414;27;45344;-82
2021/12/10 00:11:53;;;;;;;;;0.00;0.00;;;;;;;;5115399;27;45378;-83
2021/12/10 00:14:19;;;;;;;;;0.75;0.75;;;;;;;;5115713;27;45270;-82
2021/12/10 00:16:45;;;;;;;;;1.00;0.25;;;;;;;;5115381;27;45412;-85
2021/12/10 00:21:39;;;;;;;;;0.00;0.00;;;;;;;;5115108;27;45497;-81
2021/12/10 00:24:05;;;;;;;;;0.25;0.25;;;;;;;;5115444;27;45337;-83
2021/12/10 00:26:30;;;;;;;;;0.00;0.00;;;;;;;;5115540;27;45370;-84
2021/12/10 00:29:02;;;;;;;;;0.00;0.00;;;;;;;;5115828;27;45627;-85
2021/12/10 00:31:42;;;;;;;;;0.25;0.00;;;;;;;;5115276;27;46205;-83
2021/12/10 00:34:28;;;;;;;;;0.00;0.00;;;;;;;;5115141;27;45486;-85
2021/12/10 00:36:54;;;;;;;;;0.25;0.25;;;;;;;;5114171;27;45332;-85
2021/12/10 00:39:34;;;;;;;;;0.00;0.00;;;;;;;;5115476;27;45346;-85
2021/12/10 00:42:00;;;;;;;;;0.00;0.00;;;;;;;;5113515;27;45461;-86
2021/12/10 00:44:25;;;;;;;;;1.00;0.00;;;;;;;;5096614;27;45296;-82
2021/12/10 00:46:51;;;;;;;;;0.00;0.00;;;;;;;;5115107;27;45458;-82
2021/12/10 00:49:17;;;;;;;;;0.50;0.25;;;;;;;;5096090;27;45503;-84
2021/12/10 00:51:42;;;;;;;;;0.00;0.00;;;;;;;;5114116;27;46486;-82
2021/12/10 00:54:08;;;;;;;;;0.00;0.00;;;;;;;;5114860;27;45286;-81
2021/12/10 00:56:33;;;;;;;;;1.00;1.00;;;;;;;;5114846;27;45281;-82
2021/12/10 00:58:59;;;;;;;;;0.67;0.67;;;;;;;;5114775;27;45471;-82
2021/12/10 01:01:26;;;;;;;;;0.00;0.00;;;;;;;;5115106;27;46107;-83
2021/12/10 01:03:53;;;;;;;;;0.00;0.00;;;;;;;;5114532;27;45791;-83
2021/12/10 01:06:20;;;;;;;;;2.00;0.00;;;;;;;;5114201;27;45481;-86
2021/12/10 01:08:47;;;;;;;;;0.00;0.00;;;;;;;;5114603;27;45499;-81
2021/12/10 01:11:20;;;;;;;;;0.00;0.00;;;;;;;;5114397;27;46314;-82
2021/12/10 01:13:48;;;;;;;;;0.50;0.00;;;;;;;;5114790;27;45303;-83
2021/12/10 01:24:50;;;;;;;;;0.00;0.00;;;;;;;;5114239;27;45368;-81
2021/12/10 01:27:30;;;;;;;;;0.00;0.00;;;;;;;;5114412;27;45560;-81
2021/12/10 01:29:57;;;;;;;;;1.00;1.00;;;;;;;;5095806;27;45504;-85
2021/12/10 01:32:24;;;;;;;;;0.00;0.00;;;;;;;;5095563;27;47599;-82
2021/12/10 01:34:50;;;;;;;;;0.00;0.00;;;;;;;;5114736;27;45495;-82
2021/12/10 01:37:16;;;;;;;;;0.00;0.00;;;;;;;;5114054;27;45385;-82
2021/12/10 01:39:42;;;;;;;;;0.75;0.00;;;;;;;;5114271;27;45295;-82
2021/12/10 01:42:17;;;;;;;;;0.00;0.00;;;;;;;;5114150;27;46446;-84
2021/12/10 01:44:46;;;;;;;;;0.00;0.00;;;;;;;;5114057;27;45375;-82
2021/12/10 01:47:12;;;;;;;;;0.00;0.00;;;;;;;;5113993;27;45287;-83
2021/12/10 01:49:38;;;;;;;;;0.00;0.00;;;;;;;;5114061;27;45231;-82
2021/12/10 01:52:05;;;;;;;;;0.00;0.00;;;;;;;;5113460;27;45364;-85
2021/12/10 01:54:34;;;;;;;;;0.00;0.00;;;;;;;;5117640;27;45825;-82
2021/12/10 01:57:02;;;;;;;;;1.00;0.00;;;;;;;;5098786;27;45314;-81
2021/12/10 01:59:31;;;;;;;;;0.00;0.00;;;;;;;;5117625;27;45523;-85
2021/12/10 02:01:58;;;;;;;;;1.00;1.00;;;;;;;;5117323;27;45559;-85
2021/12/10 02:04:24;;;;;;;;;3.00;2.00;;;;;;;;5116992;27;45842;-85
2021/12/10 02:06:50;;;;;;;;;0.00;0.00;;;;;;;;5098149;27;45428;-82
2021/12/10 02:09:15;;;;;;;;;0.75;0.00;;;;;;;;5117093;27;45562;-81
2021/12/10 02:11:41;;;;;;;;;0.00;0.00;;;;;;;;5117306;27;45363;-83
2021/12/10 02:14:06;;;;;;;;;0.00;0.00;;;;;;;;5117186;27;45310;-84
2021/12/10 02:16:32;;;;;;;;;0.00;0.00;;;;;;;;5098404;27;45333;-81
2021/12/10 02:18:57;;;;;;;;;1.00;1.00;;;;;;;;5098701;27;45420;-82
2021/12/10 02:21:24;;;;;;;;;0.00;0.00;;;;;;;;5116681;27;46291;-82
2021/12/10 02:23:56;;;;;;;;;0.00;0.00;;;;;;;;5116937;27;45748;-81
2021/12/10 02:26:23;;;;;;;;;0.00;0.00;;;;;;;;5117413;27;45565;-82
2021/12/10 02:28:48;;;;;;;;;1.75;0.00;;;;;;;;5117114;27;45492;-82
2021/12/10 02:31:14;;;;;;;;;0.00;0.00;;;;;;;;5116543;27;47709;-82
2021/12/10 02:33:39;;;;;;;;;0.00;0.00;;;;;;;;5116724;27;45295;-82
2021/12/10 02:36:10;;;;;;;;;0.00;0.00;;;;;;;;5097981;27;45453;-86
2021/12/10 02:38:35;;;;;;;;;0.00;0.00;;;;;;;;5098532;27;45467;-85
2021/12/10 02:41:00;;;;;;;;;0.00;0.00;;;;;;;;5098701;27;48407;-85
2021/12/10 02:43:26;;;;;;;;;0.00;0.00;;;;;;;;5098615;27;45659;-86
2021/12/10 02:45:53;;;;;;;;;0.00;0.00;;;;;;;;5098374;27;45388;-81
2021/12/10 02:48:19;;;;;;;;;0.00;0.00;;;;;;;;5098431;27;45462;-81
2021/12/10 02:50:44;;;;;;;;;0.00;0.00;;;;;;;;5097338;27;47125;-82
2021/12/10 02:53:11;;;;;;;;;0.00;0.00;;;;;;;;5116483;27;45436;-84
2021/12/10 02:55:36;;;;;;;;;0.00;0.00;;;;;;;;5098247;27;45333;-82
2021/12/10 02:58:05;;;;;;;;;0.00;0.00;;;;;;;;5098313;27;45752;-86
2021/12/10 03:00:33;;;;;;;;;0.00;0.00;;;;;;;;5116809;27;45508;-83
2021/12/10 03:02:58;;;;;;;;;0.00;0.00;;;;;;;;5117010;27;45798;-85
2021/12/10 03:05:24;;;;;;;;;0.00;0.00;;;;;;;;5115554;27;45472;-82
2021/12/10 03:07:51;;;;;;;;;0.00;0.00;;;;;;;;5116389;27;45212;-85
2021/12/10 03:10:18;;;;;;;;;0.00;0.00;;;;;;;;5116245;27;45327;-81
2021/12/10 03:12:43;;;;;;;;;0.00;0.00;;;;;;;;5097944;27;45440;-85
2021/12/10 03:15:10;;;;;;;;;0.00;0.00;;;;;;;;5116518;27;45358;-81
2021/12/10 03:17:35;;;;;;;;;0.00;0.00;;;;;;;;5116258;27;45343;-82
2021/12/10 03:20:02;;;;;;;;;0.00;0.00;;;;;;;;5116114;27;45329;-82
2021/12/10 03:22:28;;;;;;;;;0.00;0.00;;;;;;;;5115545;27;45464;-81
2021/12/10 03:24:54;;;;;;;;;1.00;0.00;;;;;;;;5098015;27;45615;-86
2021/12/10 03:27:20;;;;;;;;;0.00;0.00;;;;;;;;5097589;27;45401;-83
2021/12/10 03:29:46;;;;;;;;;0.00;0.00;;;;;;;;5097181;27;49074;-82
2021/12/10 03:32:15;;;;;;;;;0.00;0.00;;;;;;;;5116046;27;45607;-82
2021/12/10 03:34:40;;;;;;;;;0.00;0.00;;;;;;;;5097566;27;45524;-82
2021/12/10 03:37:06;;;;;;;;;0.25;0.00;;;;;;;;5115591;27;45449;-82
2021/12/10 03:39:32;;;;;;;;;0.00;0.00;;;;;;;;5115768;27;46141;-81
2021/12/10 03:41:58;;;;;;;;;0.50;0.50;;;;;;;;5115801;27;45459;-82
2021/12/10 03:44:24;;;;;;;;;0.00;0.00;;;;;;;;5115704;27;45277;-82
2021/12/10 03:46:50;;;;;;;;;0.00;0.00;;;;;;;;5115892;27;45349;-82
2021/12/10 03:49:15;;;;;;;;;0.00;0.00;;;;;;;;5115356;27;45321;-82
2021/12/10 03:51:40;;;;;;;;;1.00;0.00;;;;;;;;5115616;27;45770;-81
2021/12/10 03:54:07;;;;;;;;;0.00;0.00;;;;;;;;5115776;27;45416;-82
2021/12/10 03:56:33;;;;;;;;;2.00;1.00;;;;;;;;5115568;27;45310;-84
2021/12/10 03:59:04;;;;;;;;;1.00;1.00;;;;;;;;5115345;27;45517;-83
2021/12/10 04:01:31;;;;;;;;;0.00;0.00;;;;;;;;5115312;27;45781;-82
2021/12/10 04:03:57;;;;;;;;;0.00;0.00;;;;;;;;5097009;27;45331;-84
2021/12/10 04:06:23;;;;;;;;;1.00;0.00;;;;;;;;5115729;27;45608;-85
2021/12/10 04:08:48;;;;;;;;;1.00;1.00;;;;;;;;5115098;27;46410;-81
2021/12/10 04:11:17;;;;;;;;;1.50;0.50;;;;;;;;5115380;27;45505;-81
2021/12/10 04:13:44;;;;;;;;;0.75;0.75;;;;;;;;5115340;27;45412;-82
2021/12/10 04:16:10;;;;;;;;;1.00;1.00;;;;;;;;5115171;27;45289;-81
2021/12/10 04:18:36;;;;;;;;;1.00;0.75;;;;;;;;5114971;27;45491;-85
2021/12/10 04:21:03;;;;;;;;;0.50;0.50;;;;;;;;5096387;27;45985;-82
2021/12/10 04:23:28;;;;;;;;;2.25;2.00;;;;;;;;5115301;27;45385;-81
2021/12/10 04:25:53;;;;;;;;;1.00;1.00;;;;;;;;5115260;27;45331;-82
2021/12/10 04:28:20;;;;;;;;;1.00;1.00;;;;;;;;5115071;27;45410;-86
2021/12/10 04:30:46;;;;;;;;;3.25;2.25;;;;;;;;5114730;27;45782;-83
2021/12/10 04:33:14;;;;;;;;;2.25;2.25;;;;;;;;5115222;27;45422;-82
2021/12/10 04:35:39;;;;;;;;;2.25;2.25;;;;;;;;5114684;27;45384;-83
2021/12/10 04:38:05;;;;;;;;;2.25;2.00;;;;;;;;5114901;27;45648;-82
2021/12/10 04:40:30;;;;;;;;;2.25;2.25;;;;;;;;5114985;27;45300;-84
2021/12/10 04:42:56;;;;;;;;;3.00;3.00;;;;;;;;5115204;27;45464;-81
2021/12/10 04:45:21;;;;;;;;;1.75;1.75;;;;;;;;5114808;27;45472;-81
2021/12/10 04:47:47;;;;;;;;;2.67;1.00;;;;;;;;5096420;27;48000;-85
2021/12/10 04:50:14;;;;;;;;;2.00;2.00;;;;;;;;5095983;27;45479;-83
2021/12/10 04:52:39;;;;;;;;;2.00;2.00;;;;;;;;5114301;27;45458;-83
2021/12/10 04:55:06;;;;;;;;;3.50;3.00;;;;;;;;5114865;27;45361;-85
2021/12/10 04:57:31;;;;;;;;;4.75;2.50;;;;;;;;5114597;27;46661;-85
2021/12/10 04:59:57;;;;;;;;;4.67;4.67;;;;;;;;5095837;27;45429;-82
2021/12/10 05:02:22;;;;;;;;;4.00;3.25;;;;;;;;5115309;27;45625;-84
2021/12/10 05:04:48;;;;;;;;;3.00;3.00;;;;;;;;5114813;27;45413;-85
2021/12/10 05:07:15;;;;;;;;;6.00;2.50;;;;;;;;5114293;27;46437;-85
2021/12/10 05:09:40;;;;;;;;;3.00;3.00;;;;;;;;5114253;27;45250;-86
2021/12/10 05:12:06;;;;;;;;;1.75;1.75;;;;;;;;5115018;27;45441;-84
2021/12/10 05:14:31;;;;;;;;;4.00;3.50;;;;;;;;5095939;27;45480;-86
2021/12/10 05:17:01;;;;;;;;;3.00;1.00;;;;;;;;5114293;27;47138;-83
2021/12/10 05:19:28;;;;;;;;;3.00;2.00;;;;;;;;5114440;27;45695;-84
2021/12/10 05:21:53;;;;;;;;;2.25;2.00;;;;;;;;5095449;27;45451;-85
2021/12/10 05:24:18;;;;;;;;;3.50;3.00;;;;;;;;5114482;27;45325;-86
2021/12/10 05:26:44;;;;;;;;;2.00;2.00;;;;;;;;5114065;27;45349;-85
2021/12/10 05:29:09;;;;;;;;;3.00;3.00;;;;;;;;5098259;27;46045;-82
2021/12/10 05:31:36;;;;;;;;;3.00;1.75;;;;;;;;5118087;27;45249;-85
2021/12/10 05:34:02;;;;;;;;;2.00;2.00;;;;;;;;5117861;27;45468;-86
2021/12/10 05:36:27;;;;;;;;;3.00;2.25;;;;;;;;5117409;27;45332;-85
2021/12/10 05:38:53;;;;;;;;;5.50;3.25;;;;;;;;5099344;27;45565;-81
2021/12/10 05:41:18;;;;;;;;;7.25;3.50;;;;;;;;5117718;27;45422;-82
2021/12/10 05:43:43;;;;;;;;;2.50;2.25;;;;;;;;5117634;27;45511;-86
2021/12/10 05:46:09;;;;;;;;;3.33;2.67;;;;;;;;5099164;27;48332;-84
2021/12/10 05:48:35;;;;;;;;;2.25;2.00;;;;;;;;5098831;27;45279;-82
2021/12/10 05:51:00;;;;;;;;;3.00;2.00;;;;;;;;5098556;27;45366;-85
2021/12/10 05:53:25;;;;;;;;;6.00;3.00;;;;;;;;5117737;27;45432;-85
2021/12/10 05:55:51;;;;;;;;;6.25;3.00;;;;;;;;5117834;27;45732;-85
2021/12/10 05:58:17;;;;;;;;;3.67;3.00;;;;;;;;5098913;27;45313;-83
2021/12/10 06:01:03;;;;;;;;;1.75;1.25;;;;;;;;5117296;27;45446;-84
2021/12/10 06:03:29;;;;;;;;;3.00;2.75;;;;;;;;5117126;27;45293;-81
2021/12/10 06:05:54;;;;;;;;;2.00;2.00;;;;;;;;5116798;27;46377;-82
2021/12/10 06:08:21;;;;;;;;;2.00;1.00;;;;;;;;5117306;27;45215;-82
2021/12/10 06:10:48;;;;;;;;;2.25;2.25;;;;;;;;5098683;27;45354;-85
2021/12/10 06:13:13;;;;;;;;;2.25;2.00;;;;;;;;5117300;27;45623;-81
2021/12/10 06:15:39;;;;;;;;;2.00;1.25;;;;;;;;5117066;27;46584;-85
2021/12/10 06:18:04;;;;;;;;;1.00;0.50;;;;;;;;5098545;27;45798;-85
2021/12/10 06:20:32;;;;;;;;;6.00;3.50;;;;;;;;5098336;27;45373;-82
2021/12/10 06:22:59;;;;;;;;;3.75;3.00;;;;;;;;5117085;27;45295;-84
2021/12/10 06:25:24;;;;;;;;;2.75;2.50;;;;;;;;5116788;27;45484;-81
2021/12/10 06:27:50;;;;;;;;;3.00;1.33;;;;;;;;5116910;27;45543;-83
2021/12/10 06:30:17;;;;;;;;;2.00;2.00;;;;;;;;5116875;27;45373;-84
2021/12/10 06:32:43;;;;;;;;;2.00;2.00;;;;;;;;5098505;27;45453;-84
2021/12/10 06:35:10;;;;;;;;;1.25;1.25;;;;;;;;5116946;27;46269;-83
2021/12/10 06:37:36;;;;;;;;;2.00;2.00;;;;;;;;5116643;27;45348;-82
2021/12/10 06:40:03;;;;;;;;;3.00;2.00;;;;;;;;5098265;27;45366;-83
2021/12/10 06:42:29;;;;;;;;;1.50;1.50;;;;;;;;5116584;27;45542;-84
2021/12/10 06:44:54;;;;;;;;;2.75;2.00;;;;;;;;5116481;27;45707;-85
2021/12/10 06:47:20;;;;;;;;;1.00;1.00;;;;;;;;5098288;27;45530;-84
2021/12/10 06:49:45;;;;;;;;;0.00;0.00;;;;;;;;5098029;27;45413;-85
2021/12/10 06:52:10;;;;;;;;;1.00;1.00;;;;;;;;5094539;27;45348;-84
2021/12/10 06:54:38;;;;;;;;;0.00;0.00;;;;;;;;5094588;27;48115;-85
2021/12/10 06:57:03;;;;;;;;;0.00;0.00;;;;;;;;5094744;27;45467;-83
2021/12/10 06:59:29;;;;;;;;;0.00;0.00;;;;;;;;5096305;27;45845;-85
2021/12/10 07:01:54;;;;;;;;;1.00;0.00;;;;;;;;5095772;27;45453;-85
2021/12/10 07:04:19;;;;;;;;;0.00;0.00;;;;;;;;5094366;27;47373;-84
2021/12/10 07:06:45;;;;;;;;;0.00;0.00;;;;;;;;5094111;27;45499;-85
2021/12/10 07:09:12;;;;;;;;;1.00;0.00;;;;;;;;5095984;27;45510;-83
2021/12/10 07:11:38;;;;;;;;;0.00;0.00;;;;;;;;5094809;27;45665;-85
2021/12/10 07:14:03;;;;;;;;;1.25;1.00;;;;;;;;5095674;27;46368;-83
2021/12/10 07:16:29;;;;;;;;;2.00;1.00;;;;;;;;5095810;27;45357;-85
2021/12/10 07:18:55;;;;;;;;;0.00;0.00;;;;;;;;5095679;27;45456;-82
2021/12/10 07:21:20;;;;;;;;;1.00;1.00;;;;;;;;5095131;27;45220;-82
2021/12/10 07:23:46;;;;;;;;;1.00;1.00;;;;;;;;5095723;27;45664;-81
2021/12/10 07:26:14;;;;;;;;;1.50;1.00;;;;;;;;5095729;27;45298;-85
2021/12/10 07:28:40;;;;;;;;;1.00;1.00;;;;;;;;5095865;27;45437;-85
2021/12/10 07:31:06;;;;;;;;;2.00;1.00;;;;;;;;5094380;27;45475;-80
2021/12/10 07:33:31;;;;;;;;;2.00;1.00;;;;;;;;5095723;27;45988;-84
2021/12/10 07:35:56;;;;;;;;;0.75;0.75;;;;;;;;5094977;27;45369;-85
2021/12/10 07:38:22;;;;;;;;;2.00;1.00;;;;;;;;5095501;27;45450;-85
2021/12/10 07:40:47;;;;;;;;;0.67;0.67;;;;;;;;5095454;27;45654;-81
2021/12/10 07:43:13;;;;;;;;;0.50;0.00;;;;;;;;5094079;27;47100;-85
2021/12/10 07:45:39;;;;;;;;;1.00;1.00;;;;;;;;5095140;27;45401;-85
2021/12/10 07:48:08;;;;;;;;;0.00;0.00;;;;;;;;5095523;27;45341;-85
2021/12/10 07:50:34;;;;;;;;;0.00;0.00;;;;;;;;5092647;27;45433;-85
2021/12/10 07:53:00;;;;;;;;;0.00;0.00;;;;;;;;5094938;27;45454;-85
2021/12/10 07:55:27;;;;;;;;;0.00;0.00;;;;;;;;5094060;27;45440;-84
2021/12/10 07:57:53;;;;;;;;;0.00;0.00;;;;;;;;5094093;27;45389;-85
2021/12/10 08:00:20;;;;;;;;;1.00;1.00;;;;;;;;5095180;27;45560;-85
2021/12/10 08:02:45;;;;;;;;;2.00;1.00;;;;;;;;5093348;27;48178;-84
2021/12/10 08:05:11;;;;;;;;;2.00;1.00;;;;;;;;5094274;27;45483;-84
2021/12/10 08:07:37;;;;;;;;;1.00;0.00;;;;;;;;5093871;27;45496;-84
2021/12/10 08:10:03;;;;;;;;;0.33;0.33;;;;;;;;5095164;27;45713;-83
2021/12/10 08:12:28;;;;;;;;;2.00;1.00;;;;;;;;5093359;27;47983;-85
2021/12/10 08:14:55;;;;;;;;;0.33;0.33;;;;;;;;5094898;27;45449;-81
2021/12/10 08:17:20;;;;;;;;;1.25;1.00;;;;;;;;5094993;27;45548;-85
2021/12/10 08:19:46;;;;;;;;;0.50;0.50;;;;;;;;5093396;27;45482;-82
2021/12/10 08:22:14;;;;;;;;;2.75;2.75;;;;;;;;5092936;27;48198;-84
2021/12/10 08:24:41;;;;;;;;;0.25;0.25;;;;;;;;5094852;27;45933;-84
2021/12/10 08:27:06;;;;;;;;;0.00;0.00;;;;;;;;5094801;27;45430;-84
2021/12/10 08:29:34;;;;;;;;;1.00;0.00;;;;;;;;5094585;27;45287;-85
2021/12/10 08:32:00;;;;;;;;;0.75;0.00;;;;;;;;5094627;27;46451;-85
2021/12/10 08:34:25;;;;;;;;;0.00;0.00;;;;;;;;5094507;27;45510;-84
2021/12/10 08:36:50;;;;;;;;;1.00;0.67;;;;;;;;5092649;27;45421;-82
2021/12/10 08:39:15;;;;;;;;;0.67;0.00;;;;;;;;5093178;27;45545;-82
2021/12/10 08:41:41;;;;;;;;;0.00;0.00;;;;;;;;5094365;27;46096;-85
2021/12/10 08:44:07;;;;;;;;;0.00;0.00;;;;;;;;5094259;27;45394;-82
2021/12/10 08:46:34;;;;;;;;;2.00;1.00;;;;;;;;5094165;27;45313;-85
2021/12/10 08:48:59;;;;;;;;;0.00;0.00;;;;;;;;5094604;27;45295;-82
2021/12/10 08:51:29;;;;;;;;;0.67;0.00;;;;;;;;5107406;27;46694;-82
2021/12/10 08:53:54;;;;;;;;;1.00;1.00;;;;;;;;5096239;27;45483;-82
2021/12/10 08:56:19;;;;;;;;;0.50;0.50;;;;;;;;5115088;27;45354;-85
2021/12/10 08:58:45;;;;;;;;;0.00;0.00;;;;;;;;5115214;27;45543;-81
2021/12/10 09:01:15;;;;;;;;;1.00;0.00;;;;;;;;5114578;27;46544;-84
2021/12/10 09:03:41;;;;;;;;;0.00;0.00;;;;;;;;5113234;27;45742;-82
2021/12/10 09:06:07;;;;;;;;;0.00;0.00;;;;;;;;5114676;27;45468;-82
2021/12/10 09:08:32;;;;;;;;;0.75;0.75;;;;;;;;5114643;27;45512;-81
2021/12/10 09:10:58;;;;;;;;;1.00;0.33;;;;;;;;5115010;27;46210;-83
2021/12/10 09:13:24;;;;;;;;;2.00;1.00;;;;;;;;5115047;27;45591;-85
2021/12/10 09:15:52;;;;;;;;;1.00;0.00;;;;;;;;5096083;27;45368;-82
2021/12/10 09:18:17;;;;;;;;;1.00;0.00;;;;;;;;5096040;27;45557;-82
2021/12/10 09:20:45;;;;;;;;;0.50;0.50;;;;;;;;5095824;27;48182;-84
2021/12/10 09:23:12;;;;;;;;;0.25;0.25;;;;;;;;5114549;27;45464;-83
2021/12/10 09:25:39;;;;;;;;;1.00;0.00;;;;;;;;5114481;27;45290;-82
2021/12/10 09:28:04;;;;;;;;;1.00;1.00;;;;;;;;5096301;27;45701;-82
2021/12/10 09:30:31;;;;;;;;;1.00;0.00;;;;;;;;5113835;27;48029;-82
2021/12/10 09:32:56;;;;;;;;;1.00;1.00;;;;;;;;5113982;27;45255;-84
2021/12/10 09:35:23;;;;;;;;;1.50;1.00;;;;;;;;5113961;27;45372;-85
2021/12/10 09:37:49;;;;;;;;;1.00;0.75;;;;;;;;5113722;27;45324;-85
2021/12/10 09:40:25;;;;;;;;;0.00;0.00;;;;;;;;5113908;27;46786;-82
2021/12/10 09:42:51;;;;;;;;;1.00;1.00;;;;;;;;5095838;27;45578;-85
2021/12/10 09:45:18;;;;;;;;;1.67;1.67;;;;;;;;5114517;27;45266;-85
2021/12/10 09:47:44;;;;;;;;;2.50;1.00;;;;;;;;5095678;27;45344;-85
2021/12/10 09:50:10;;;;;;;;;1.00;1.00;;;;;;;;5094650;27;47363;-85
2021/12/10 09:52:37;;;;;;;;;1.50;1.50;;;;;;;;5114130;27;45411;-84
2021/12/10 09:55:03;;;;;;;;;4.00;2.75;;;;;;;;5113948;27;45261;-84
2021/12/10 09:57:34;;;;;;;;;1.00;1.00;;;;;;;;5095473;27;45460;-85
2021/12/10 10:00:00;;;;;;;;;1.00;1.00;;;;;;;;5095565;27;47221;-85
2021/12/10 10:02:29;;;;;;;;;2.50;1.00;;;;;;;;5095138;27;46097;-85
2021/12/10 10:04:55;;;;;;;;;2.75;1.75;;;;;;;;5113699;27;45287;-82
2021/12/10 10:07:23;;;;;;;;;2.75;1.75;;;;;;;;5095465;27;45687;-84
2021/12/10 10:09:50;;;;;;;;;1.00;1.00;;;;;;;;5095068;27;48440;-84
2021/12/10 10:12:19;;;;;;;;;2.75;2.00;;;;;;;;5113778;27;45346;-85
2021/12/10 10:14:44;;;;;;;;;2.00;1.00;;;;;;;;5097396;27;45317;-85
2021/12/10 10:17:11;;;;;;;;;3.50;2.00;;;;;;;;5117769;27;45666;-84
2021/12/10 10:19:37;;;;;;;;;1.00;0.75;;;;;;;;5098579;27;48203;-84
2021/12/10 10:22:05;;;;;;;;;3.00;3.00;;;;;;;;5098334;27;45746;-85
2021/12/10 10:24:30;;;;;;;;;3.50;1.00;;;;;;;;5117305;27;45527;-85
2021/12/10 10:27:00;;;;;;;;;2.00;1.00;;;;;;;;5098895;27;45837;-85
2021/12/10 10:29:27;;;;;;;;;2.00;1.25;;;;;;;;5117337;27;45585;-85
2021/12/10 10:31:56;;;;;;;;;6.50;2.50;;;;;;;;5116988;27;45789;-85
2021/12/10 10:34:23;;;;;;;;;0.75;0.75;;;;;;;;5098719;27;45336;-84
2021/12/10 10:36:49;;;;;;;;;1.75;1.00;;;;;;;;5116949;27;45329;-84
2021/12/10 10:39:17;;;;;;;;;2.00;2.00;;;;;;;;5098457;27;48295;-85
2021/12/10 10:41:44;;;;;;;;;0.50;0.50;;;;;;;;5116983;27;45359;-85
2021/12/10 10:44:09;;;;;;;;;3.75;1.25;;;;;;;;5098298;27;45323;-85
2021/12/10 10:46:35;;;;;;;;;1.67;1.00;;;;;;;;5117032;27;45307;-84
2021/12/10 10:49:01;;;;;;;;;2.75;1.00;;;;;;;;5116627;27;45534;-83
2021/12/10 10:51:33;;;;;;;;;3.00;1.00;;;;;;;;5116078;27;45393;-82
2021/12/10 10:54:00;;;;;;;;;1.50;1.25;;;;;;;;5117041;27;45372;-85
2021/12/10 10:56:25;;;;;;;;;1.50;1.00;;;;;;;;5116804;27;45501;-84
2021/12/10 10:58:55;;;;;;;;;0.00;0.00;;;;;;;;5116620;27;45422;-83
2021/12/10 11:01:24;;;;;;;;;1.00;1.00;;;;;;;;5116582;27;45416;-82
2021/12/10 11:03:53;;;;;;;;;1.00;1.00;;;;;;;;5098128;27;45495;-82
2021/12/10 11:06:23;;;;;;;;;3.00;1.50;;;;;;;;5116329;27;45627;-85
2021/12/10 11:08:52;;;;;;;;;1.00;0.75;;;;;;;;5116325;27;45369;-82
2021/12/10 11:11:20;;;;;;;;;2.00;2.00;;;;;;;;5116601;27;45812;-85
2021/12/10 11:13:46;;;;;;;;;1.50;1.00;;;;;;;;5098105;27;45467;-85
2021/12/10 11:16:14;;;;;;;;;2.00;2.00;;;;;;;;5116774;27;45448;-85
2021/12/10 11:18:42;;;;;;;;;1.50;1.25;;;;;;;;5116193;27;45409;-82
2021/12/10 11:21:07;;;;;;;;;1.00;0.25;;;;;;;;5115931;27;45293;-83
2021/12/10 11:23:33;;;;;;;;;1.67;1.00;;;;;;;;5116678;27;45605;-84
2021/12/10 11:25:59;;;;;;;;;0.75;0.75;;;;;;;;5115302;27;45310;-86
2021/12/10 11:28:26;;;;;;;;;1.25;1.00;;;;;;;;5097549;27;47257;-82
2021/12/10 11:31:02;;;;;;;;;2.00;1.00;;;;;;;;5097573;27;45748;-84
2021/12/10 11:33:28;;;;;;;;;0.75;0.50;;;;;;;;5113693;27;45568;-82
2021/12/10 11:35:56;;;;;;;;;1.00;0.75;;;;;;;;5115827;27;45393;-85
2021/12/10 11:38:28;;;;;;;;;1.00;0.75;;;;;;;;5115791;27;46505;-83
2021/12/10 11:40:59;;;;;;;;;1.75;1.50;;;;;;;;5116010;27;45416;-83
2021/12/10 11:47:39;;;;;;;;;1.00;1.00;;;;;;;;5011750;28;45489;-81
2021/12/10 11:49:39;;;;;;;;;1.50;1.50;;;;;;;;5105143;27;46200;-85
2021/12/10 11:52:13;;;;;;;;;1.25;1.00;;;;;;;;5096577;27;45676;-82
2021/12/10 11:54:40;;;;;;;;;2.75;1.00;;;;;;;;5116092;27;45486;-84
2021/12/10 11:57:11;;;;;;;;;1.00;1.00;;;;;;;;5116024;27;45505;-85
2021/12/10 11:59:40;;;;;;;;;3.25;1.00;;;;;;;;5097093;27;47034;-83
2021/12/10 12:02:07;;;;;;;;;0.50;0.00;;;;;;;;5097122;27;45788;-85
2021/12/10 12:04:37;;;;;;;;;0.75;0.75;;;;;;;;5097073;27;45449;-85
2021/12/10 12:07:20;;;;;;;;;1.75;1.00;;;;;;;;5115512;27;45371;-86
2021/12/10 12:10:06;;;;;;;;;1.00;1.00;;;;;;;;5096978;27;46635;-86
2021/12/10 12:12:38;;;;;;;;;1.00;0.00;;;;;;;;5103951;27;45460;-83
2021/12/10 12:15:30;;;;;;;;;0.75;0.75;;;;;;;;5115650;27;45337;-85
2021/12/10 12:18:00;;;;;;;;;0.00;0.00;;;;;;;;5112346;27;45324;-85
2021/12/10 12:20:42;;;;;;;;;0.00;0.00;;;;;;;;5096586;27;49038;-86
2021/12/10 12:26:08;;;;;;;;;2.00;2.00;;;;;;;;5115546;27;45408;-84
2021/12/10 12:28:37;;;;;;;;;0.00;0.00;;;;;;;;5110423;27;45559;-85
2021/12/10 12:31:11;;;;;;;;;0.00;0.00;;;;;;;;5115071;27;46236;-84
2021/12/10 12:33:49;;;;;;;;;0.25;0.00;;;;;;;;5096586;27;45872;-85
2021/12/10 12:36:14;;;;;;;;;1.00;1.00;;;;;;;;5114943;27;45302;-85
2021/12/10 12:38:42;;;;;;;;;1.75;1.00;;;;;;;;5096581;27;45445;-85
2021/12/10 12:41:10;;;;;;;;;2.00;1.00;;;;;;;;5115018;27;46448;-84
2021/12/10 12:43:37;;;;;;;;;0.50;0.50;;;;;;;;5114986;27;45386;-84
2021/12/10 12:46:03;;;;;;;;;4.00;1.00;;;;;;;;5096542;27;45298;-83
2021/12/10 12:48:28;;;;;;;;;2.00;1.50;;;;;;;;5114939;27;45643;-85
2021/12/10 12:50:55;;;;;;;;;1.00;1.00;;;;;;;;5114293;27;45277;-83
2021/12/10 12:53:24;;;;;;;;;1.00;0.00;;;;;;;;5114846;27;45768;-86
2021/12/10 12:55:50;;;;;;;;;0.75;0.75;;;;;;;;5115202;27;45597;-84
2021/12/10 12:58:34;;;;;;;;;0.00;0.00;;;;;;;;5115024;27;45368;-85
2021/12/10 13:01:05;;;;;;;;;2.50;1.50;;;;;;;;5114547;27;45643;-85
2021/12/10 13:03:49;;;;;;;;;0.00;0.00;;;;;;;;5114721;27;45538;-82
2021/12/10 13:06:20;;;;;;;;;0.00;0.00;;;;;;;;5095896;27;45571;-83
2021/12/10 13:08:52;;;;;;;;;1.00;0.00;;;;;;;;5114509;27;45504;-85
2021/12/10 13:11:19;;;;;;;;;2.00;1.00;;;;;;;;5095898;27;48604;-83
2021/12/10 13:13:47;;;;;;;;;1.50;1.00;;;;;;;;5095945;27;45815;-85
2021/12/10 13:16:14;;;;;;;;;2.00;2.00;;;;;;;;5096048;27;45348;-82
2021/12/10 13:18:41;;;;;;;;;1.25;1.25;;;;;;;;5114516;27;45460;-82
2021/12/10 13:21:07;;;;;;;;;1.00;1.00;;;;;;;;5113836;27;45725;-85
2021/12/10 13:23:33;;;;;;;;;2.25;1.00;;;;;;;;5095709;27;45748;-84
2021/12/10 13:26:01;;;;;;;;;1.00;1.00;;;;;;;;5114494;27;45361;-85
2021/12/10 13:28:26;;;;;;;;;1.75;1.75;;;;;;;;5114848;27;45550;-83
2021/12/10 13:30:54;;;;;;;;;0.00;0.00;;;;;;;;5114225;27;45542;-83
2021/12/10 13:33:21;;;;;;;;;1.00;0.25;;;;;;;;5114347;27;45278;-82
2021/12/10 13:35:47;;;;;;;;;2.00;1.00;;;;;;;;5113984;27;45464;-82
2021/12/10 13:38:12;;;;;;;;;1.00;1.00;;;;;;;;5114309;27;45420;-85
2021/12/10 13:40:39;;;;;;;;;3.00;1.25;;;;;;;;5113967;27;45377;-85
2021/12/10 13:43:05;;;;;;;;;2.50;1.00;;;;;;;;5095597;27;45905;-84
2021/12/10 13:45:32;;;;;;;;;1.75;1.75;;;;;;;;5114126;27;45460;-86
2021/12/10 13:48:09;;;;;;;;;2.50;2.25;;;;;;;;5114803;27;45509;-85
2021/12/10 13:50:44;;;;;;;;;4.00;1.25;;;;;;;;5098542;27;48130;-83
2021/12/10 13:53:19;;;;;;;;;1.00;0.00;;;;;;;;5118183;27;45801;-83
2021/12/10 13:55:44;;;;;;;;;2.75;1.75;;;;;;;;5117719;27;45401;-83
2021/12/10 13:58:19;;;;;;;;;1.00;1.00;;;;;;;;5117787;27;45645;-85
2021/12/10 14:00:49;;;;;;;;;1.25;1.25;;;;;;;;5117422;27;45481;-84
2021/12/10 14:03:15;;;;;;;;;1.25;1.25;;;;;;;;5117650;27;45445;-83
2021/12/10 14:05:42;;;;;;;;;1.25;1.00;;;;;;;;5117327;27;45472;-81
2021/12/10 14:08:13;;;;;;;;;2.00;0.25;;;;;;;;5117451;27;45249;-84
2021/12/10 14:10:41;;;;;;;;;1.50;1.00;;;;;;;;5117344;27;45474;-86
2021/12/10 14:13:09;;;;;;;;;1.00;0.75;;;;;;;;5117364;27;45333;-85
2021/12/10 14:15:54;;;;;;;;;2.50;1.00;;;;;;;;5098701;27;45372;-84
2021/12/10 14:18:27;;;;;;;;;0.50;0.00;;;;;;;;5117746;27;45587;-86
2021/12/10 14:21:01;;;;;;;;;1.75;1.00;;;;;;;;5116704;27;45663;-83
2021/12/10 14:23:28;;;;;;;;;2.00;1.00;;;;;;;;5098678;27;45393;-83
2021/12/10 14:25:56;;;;;;;;;1.00;0.75;;;;;;;;5117474;27;45546;-86
2021/12/10 14:28:39;;;;;;;;;0.75;0.00;;;;;;;;5117382;27;45353;-85
2021/12/10 14:31:09;;;;;;;;;2.00;1.00;;;;;;;;5098771;27;47332;-86
2021/12/10 14:33:37;;;;;;;;;1.00;1.00;;;;;;;;5098821;27;45368;-87
2021/12/10 14:36:23;;;;;;;;;0.00;0.00;;;;;;;;5098654;27;45330;-85
2021/12/10 14:38:52;;;;;;;;;2.00;1.00;;;;;;;;5098094;27;45469;-86
2021/12/10 14:41:19;;;;;;;;;1.00;1.00;;;;;;;;5098681;27;47868;-87
2021/12/10 14:43:56;;;;;;;;;0.00;0.00;;;;;;;;5117485;27;45488;-86
2021/12/10 14:46:21;;;;;;;;;2.50;1.00;;;;;;;;5098427;27;45314;-87
2021/12/10 14:48:59;;;;;;;;;0.67;0.67;;;;;;;;5117296;27;45439;-85
2021/12/10 14:51:24;;;;;;;;;0.00;0.00;;;;;;;;5116250;27;45501;-84
2021/12/10 14:53:51;;;;;;;;;3.00;2.00;;;;;;;;5116953;27;45455;-84
2021/12/10 14:56:25;;;;;;;;;1.00;1.00;;;;;;;;5116956;27;45372;-84
2021/12/10 14:59:02;;;;;;;;;2.00;1.00;;;;;;;;5117020;27;45476;-83
2021/12/10 15:01:28;;;;;;;;;1.00;0.50;;;;;;;;5115273;27;45674;-84
2021/12/10 15:03:54;;;;;;;;;1.00;0.50;;;;;;;;5116543;27;45312;-83